createdAt,value
2018-11-12T00:01:48.446Z,100949.90
2018-11-12T00:04:17.774Z,100954.22
2018-11-12T00:06:46.441Z,100961.50
2018-11-12T00:09:14.951Z,100961.80
2018-11-12T00:11:43.619Z,100958.30
2018-11-12T00:14:12.126Z,100956.42
2018-11-12T00:16:41.021Z,100959.13
2018-11-12T00:19:09.629Z,100958.34
2018-11-12T00:21:38.260Z,100967.23
2018-11-12T00:24:07.015Z,100968.59
2018-11-12T00:26:35.775Z,100971.30
2018-11-12T00:29:04.303Z,100972.12
2018-11-12T00:31:32.908Z,100981.84
2018-11-12T00:34:01.485Z,100972.15
2018-11-12T00:36:31.019Z,100972.19
2018-11-12T00:38:59.539Z,100977.06
2018-11-12T00:41:28.068Z,100969.81
2018-11-12T00:43:56.629Z,100973.56
2018-11-12T00:46:25.406Z,100974.66
2018-11-12T00:48:53.957Z,100974.36
2018-11-12T00:51:22.747Z,100982.44
2018-11-12T00:53:51.379Z,100985.13
2018-11-12T00:56:19.907Z,100983.52
2018-11-12T00:58:48.475Z,100987.28
2018-11-12T01:01:17.059Z,100988.37
2018-11-12T01:03:45.593Z,100996.70
2018-11-12T01:06:14.077Z,100995.12
2018-11-12T01:08:42.651Z,101001.32
2018-11-12T01:11:11.239Z,101016.45
2018-11-12T01:13:39.800Z,101019.13
2018-11-12T01:16:09.022Z,101015.86
2018-11-12T01:18:37.542Z,101007.25
2018-11-12T01:21:06.611Z,101014.54
2018-11-12T01:23:35.577Z,101011.58
2018-11-12T01:26:04.552Z,101016.95
2018-11-12T01:28:33.200Z,101005.05
2018-11-12T01:31:05.626Z,101010.72
2018-11-12T01:33:35.631Z,101012.59
2018-11-12T01:36:04.232Z,101005.31
2018-11-12T01:38:32.949Z,101002.08
2018-11-12T01:41:01.475Z,101009.10
2018-11-12T01:43:30.086Z,101011.80
2018-11-12T01:45:59.015Z,101010.19
2018-11-12T01:48:27.532Z,101008.55
2018-11-12T01:50:56.068Z,100998.52
2018-11-12T01:53:24.590Z,101003.34
2018-11-12T01:55:53.210Z,101004.39
2018-11-12T01:58:21.733Z,100989.48
2018-11-12T02:00:50.331Z,100987.81
2018-11-12T02:03:18.912Z,101002.68
2018-11-12T02:05:47.440Z,101008.61
2018-11-12T02:08:16.006Z,100999.15
2018-11-12T02:10:44.544Z,100998.59
2018-11-12T02:13:13.104Z,101013.16
2018-11-12T02:15:41.681Z,101012.08
2018-11-12T02:18:10.250Z,101007.52
2018-11-12T02:20:38.834Z,101007.75
2018-11-12T02:23:07.357Z,101017.22
2018-11-12T02:25:35.953Z,101028.27
2018-11-12T02:28:04.895Z,101033.14
2018-11-12T02:30:38.817Z,101023.91
2018-11-12T02:33:07.390Z,101020.91
2018-11-12T02:35:35.902Z,101004.69
2018-11-12T02:38:04.466Z,101017.08
2018-11-12T02:40:33.057Z,101014.64
2018-11-12T02:43:01.635Z,101009.73
2018-11-12T02:45:30.265Z,101005.41
2018-11-12T02:47:58.913Z,100998.05
2018-11-12T02:50:27.499Z,101005.07
2018-11-12T02:52:56.101Z,101007.48
2018-11-12T02:55:24.680Z,101004.21
2018-11-12T02:57:53.245Z,101003.95
2018-11-12T03:00:22.944Z,100998.02
2018-11-12T03:02:51.574Z,101004.21
2018-11-12T03:05:20.164Z,101017.66
2018-11-12T03:07:48.745Z,101010.87
2018-11-12T03:10:25.173Z,101019.73
2018-11-12T03:12:53.799Z,101008.88
2018-11-12T03:15:22.657Z,100999.67
2018-11-12T03:17:57.646Z,101003.14
2018-11-12T03:20:26.254Z,100997.19
2018-11-12T03:22:54.779Z,101001.70
2018-11-12T03:25:23.412Z,101009.52
2018-11-12T03:27:52.161Z,101010.09
2018-11-12T03:30:21.736Z,101010.84
2018-11-12T03:32:50.953Z,101030.56
2018-11-12T03:35:19.522Z,101021.33
2018-11-12T03:37:49.019Z,101022.15
2018-11-12T03:40:19.885Z,101031.05
2018-11-12T03:42:48.947Z,101041.35
2018-11-12T03:45:22.599Z,101049.97
2018-11-12T03:47:51.725Z,101042.70
2018-11-12T03:50:21.911Z,101042.94
2018-11-12T03:52:50.558Z,101042.41
2018-11-12T03:55:20.431Z,101034.55
2018-11-12T03:57:48.954Z,101045.61
2018-11-12T04:00:20.928Z,101039.41
2018-11-12T04:02:49.500Z,101047.48
2018-11-12T04:05:18.088Z,101049.13
2018-11-12T04:07:46.680Z,101059.40
2018-11-12T04:10:16.859Z,101061.05
2018-11-12T04:12:45.446Z,101071.35
2018-11-12T04:15:18.749Z,101066.05
2018-11-12T04:17:47.279Z,101065.22
2018-11-12T04:20:17.039Z,101065.41
2018-11-12T04:23:18.374Z,101064.05
2018-11-12T04:25:47.508Z,101065.94
2018-11-12T04:28:16.390Z,101064.55
2018-11-12T04:30:44.990Z,101063.20
2018-11-12T04:33:13.565Z,101067.78
2018-11-12T04:35:42.164Z,101065.86
2018-11-12T04:38:10.833Z,101066.09
2018-11-12T04:40:39.425Z,101061.20
2018-11-12T04:43:07.945Z,101054.92
2018-11-12T04:45:36.546Z,101049.77
2018-11-12T04:48:05.099Z,101057.33
2018-11-12T04:50:33.698Z,101054.09
2018-11-12T04:53:02.212Z,101050.00
2018-11-12T04:55:30.755Z,101046.69
2018-11-12T04:57:59.317Z,101042.89
2018-11-12T05:00:28.832Z,101043.67
2018-11-12T05:02:57.381Z,101049.05
2018-11-12T05:05:27.134Z,101033.06
2018-11-12T05:07:55.674Z,101038.97
2018-11-12T05:10:25.397Z,101038.67
2018-11-12T05:12:54.487Z,101032.72
2018-11-12T05:15:29.630Z,101042.65
2018-11-12T05:17:58.175Z,101033.43
2018-11-12T05:20:28.331Z,101029.63
2018-11-12T05:22:56.898Z,101032.08
2018-11-12T05:25:25.613Z,101033.95
2018-11-12T05:27:54.138Z,101036.66
2018-11-12T05:30:26.165Z,101027.97
2018-11-12T05:32:55.159Z,101025.83
2018-11-12T05:35:24.873Z,101024.13
2018-11-12T05:37:53.630Z,101020.06
2018-11-12T05:40:24.221Z,101015.14
2018-11-12T05:42:52.892Z,101014.05
2018-11-12T05:45:22.687Z,101014.30
2018-11-12T05:47:51.252Z,101010.24
2018-11-12T05:50:24.035Z,100999.89
2018-11-12T05:52:54.003Z,100994.44
2018-11-12T05:55:23.774Z,101001.20
2018-11-12T05:57:52.338Z,101004.17
2018-11-12T06:00:26.774Z,101010.64
2018-11-12T06:02:55.528Z,101014.17
2018-11-12T06:05:24.052Z,101019.52
2018-11-12T06:07:52.637Z,101024.93
2018-11-12T06:10:25.809Z,101022.22
2018-11-12T06:12:54.365Z,101019.77
2018-11-12T06:15:23.201Z,101021.69
2018-11-12T06:17:52.221Z,101022.73
2018-11-12T06:20:22.880Z,101021.39
2018-11-12T06:22:52.224Z,101028.42
2018-11-12T06:25:22.115Z,101032.48
2018-11-12T06:27:51.210Z,101027.81
2018-11-12T06:30:21.923Z,101029.98
2018-11-12T06:32:50.557Z,101031.57
2018-11-12T06:35:19.682Z,101028.86
2018-11-12T06:37:49.298Z,101029.64
2018-11-12T06:40:20.012Z,101035.85
2018-11-12T06:42:48.725Z,101027.98
2018-11-12T06:45:20.147Z,101022.26
2018-11-12T06:47:49.654Z,101029.03
2018-11-12T06:50:21.375Z,101035.80
2018-11-12T06:52:50.067Z,101030.39
2018-11-12T06:55:19.087Z,101029.03
2018-11-12T06:57:48.154Z,101027.67
2018-11-12T07:00:25.460Z,101032.79
2018-11-12T07:02:54.101Z,101026.06
2018-11-12T07:05:22.621Z,101034.70
2018-11-12T07:07:51.202Z,101036.59
2018-11-12T07:10:21.162Z,101034.45
2018-11-12T07:12:50.555Z,101043.89
2018-11-12T07:15:20.505Z,101044.94
2018-11-12T07:17:49.146Z,101057.92
2018-11-12T07:20:19.379Z,101056.34
2018-11-12T07:22:48.077Z,101068.76
2018-11-12T07:25:17.736Z,101066.31
2018-11-12T07:27:46.279Z,101074.18
2018-11-12T07:30:18.028Z,101074.48
2018-11-12T07:32:47.087Z,101071.24
2018-11-12T07:35:16.478Z,101075.80
2018-11-12T07:37:46.228Z,101073.91
2018-11-12T07:40:15.538Z,101071.69
2018-11-12T07:42:44.326Z,101071.90
2018-11-12T07:45:16.810Z,101067.58
2018-11-12T07:47:46.286Z,101075.70
2018-11-12T07:50:17.150Z,101075.14
2018-11-12T07:52:45.841Z,101072.43
2018-11-12T07:55:16.240Z,101071.38
2018-11-12T07:57:45.647Z,101077.85
2018-11-12T08:00:16.562Z,101080.82
2018-11-12T08:02:46.098Z,101081.08
2018-11-12T08:05:15.013Z,101079.68
2018-11-12T08:07:44.217Z,101076.41
2018-11-12T08:10:15.047Z,101083.44
2018-11-12T08:12:44.438Z,101078.81
2018-11-12T08:15:14.250Z,101079.38
2018-11-12T08:17:43.051Z,101078.02
2018-11-12T08:20:13.977Z,101076.36
2018-11-12T08:22:43.164Z,101081.73
2018-11-12T08:25:12.393Z,101072.25
2018-11-12T08:27:41.753Z,101067.05
2018-11-12T08:30:13.934Z,101066.73
2018-11-12T08:32:43.083Z,101053.45
2018-11-12T08:35:12.982Z,101057.20
2018-11-12T08:37:41.574Z,101059.92
2018-11-12T08:40:12.606Z,101060.44
2018-11-12T08:42:41.778Z,101059.61
2018-11-12T08:45:10.878Z,101059.08
2018-11-12T08:47:40.297Z,101065.98
2018-11-12T08:50:15.047Z,101049.98
2018-11-12T08:52:44.727Z,101043.20
2018-11-12T08:55:16.537Z,101043.41
2018-11-12T08:57:48.331Z,101045.81
2018-11-12T09:00:17.433Z,101055.56
2018-11-12T09:02:45.986Z,101052.86
2018-11-12T09:05:15.757Z,101045.51
2018-11-12T09:07:46.787Z,101049.84
2018-11-12T09:10:17.169Z,101054.16
2018-11-12T09:12:46.085Z,101051.19
2018-11-12T09:15:14.907Z,101048.44
2018-11-12T09:17:44.354Z,101051.63
2018-11-12T09:20:15.475Z,101049.17
2018-11-12T09:22:43.991Z,101049.43
2018-11-12T09:25:15.255Z,101051.58
2018-11-12T09:27:43.895Z,101052.88
2018-11-12T09:30:16.434Z,101053.14
2018-11-12T09:32:45.173Z,101057.20
2018-11-12T09:35:14.899Z,101057.47
2018-11-12T09:37:44.833Z,101054.75
2018-11-12T09:40:17.604Z,101058.20
2018-11-12T09:42:46.558Z,101049.20
2018-11-12T09:45:15.083Z,101048.92
2018-11-12T09:47:44.229Z,101052.68
2018-11-12T09:50:14.503Z,101057.23
2018-11-12T09:52:44.419Z,101064.27
2018-11-12T09:55:13.621Z,101050.09
2018-11-12T09:57:43.161Z,101044.08
2018-11-12T10:00:13.959Z,101040.27
2018-11-12T10:02:44.881Z,101029.64
2018-11-12T10:05:13.416Z,101031.77
2018-11-12T10:07:42.450Z,101023.86
2018-11-12T10:10:23.448Z,101024.63
2018-11-12T10:12:52.083Z,101016.97
2018-11-12T10:15:22.191Z,101024.20
2018-11-12T10:17:50.053Z,101020.93
2018-11-12T10:20:16.199Z,101028.81
2018-11-12T10:22:44.945Z,101040.17
2018-11-12T10:25:14.250Z,101036.84
2018-11-12T10:27:42.799Z,101038.45
2018-11-12T10:30:11.607Z,101041.95
2018-11-12T10:32:40.398Z,101042.53
2018-11-12T10:35:09.724Z,101041.95
2018-11-12T10:37:38.888Z,101041.06
2018-11-12T10:40:16.928Z,101038.60
2018-11-12T10:42:46.103Z,101042.11
2018-11-12T10:45:15.741Z,101044.77
2018-11-12T10:47:44.945Z,101040.36
2018-11-12T10:50:13.683Z,101032.47
2018-11-12T10:52:42.253Z,101030.23
2018-11-12T10:55:13.958Z,101033.47
2018-11-12T10:57:43.165Z,101039.38
2018-11-12T11:00:19.575Z,101041.49
2018-11-12T11:02:53.200Z,101028.17
2018-11-12T11:05:21.920Z,101025.94
2018-11-12T11:07:51.386Z,101024.52
2018-11-12T11:10:20.408Z,101019.60
2018-11-12T11:12:48.932Z,101020.91
2018-11-12T11:15:17.518Z,101029.27
2018-11-12T11:17:46.478Z,101040.39
2018-11-12T11:20:15.121Z,101037.41
2018-11-12T11:22:43.649Z,101033.59
2018-11-12T11:25:12.169Z,101032.80
2018-11-12T11:27:40.828Z,101029.78
2018-11-12T11:30:11.651Z,101029.78
2018-11-12T11:32:40.335Z,101028.36
2018-11-12T11:35:09.799Z,101034.05
2018-11-12T11:37:38.359Z,101026.95
2018-11-12T11:40:10.344Z,101024.48
2018-11-12T11:42:39.251Z,101028.78
2018-11-12T11:45:08.707Z,101024.39
2018-11-12T11:47:37.660Z,101032.26
2018-11-12T11:50:06.956Z,101030.34
2018-11-12T11:52:35.571Z,101032.20
2018-11-12T11:55:04.669Z,101033.24
2018-11-12T11:57:33.309Z,101038.90
2018-11-12T12:00:01.836Z,101039.97
2018-11-12T12:02:30.415Z,101044.84
2018-11-12T12:04:59.056Z,101048.66
2018-11-12T12:07:27.596Z,101040.77
2018-11-12T12:09:56.227Z,101039.09
2018-11-12T12:12:24.795Z,101048.34
2018-11-12T12:14:53.314Z,101045.34
2018-11-12T12:17:21.873Z,101043.73
2018-11-12T12:19:50.794Z,101053.49
2018-11-12T12:22:19.467Z,101052.92
2018-11-12T12:24:48.140Z,101057.00
2018-11-12T12:27:16.567Z,101058.83
2018-11-12T12:29:45.100Z,101063.16
2018-11-12T12:32:13.619Z,101055.33
2018-11-12T12:34:42.159Z,101050.69
2018-11-12T12:37:10.743Z,101047.44
2018-11-12T12:39:39.299Z,101039.77
2018-11-12T12:42:07.832Z,101051.39
2018-11-12T12:44:37.107Z,101055.41
2018-11-12T12:47:05.855Z,101053.48
2018-11-12T12:49:35.420Z,101047.48
2018-11-12T12:52:04.926Z,101056.45
2018-11-12T12:54:33.562Z,101054.52
2018-11-12T12:57:02.116Z,101051.27
2018-11-12T12:59:30.728Z,101055.34
2018-11-12T13:01:59.494Z,101045.02
2018-11-12T13:04:27.905Z,101056.13
2018-11-12T13:06:56.442Z,101066.20
2018-11-12T13:09:25.008Z,101070.28
2018-11-12T13:11:53.628Z,101070.03
2018-11-12T13:14:22.151Z,101067.56
2018-11-12T13:16:50.730Z,101070.81
2018-11-12T13:19:19.319Z,101077.86
2018-11-12T13:21:47.868Z,101074.05
2018-11-12T13:24:16.472Z,101057.69
2018-11-12T13:26:45.027Z,101050.83
2018-11-12T13:29:13.578Z,101054.59
2018-11-12T13:31:42.206Z,101046.92
2018-11-12T13:34:10.744Z,101038.39
2018-11-12T13:36:39.239Z,101043.75
2018-11-12T13:39:10.890Z,101044.33
2018-11-12T13:41:39.819Z,101043.70
2018-11-12T13:44:08.543Z,101046.09
2018-11-12T13:46:42.222Z,101040.13
2018-11-12T13:49:10.896Z,101040.59
2018-11-12T13:51:39.472Z,101033.27
2018-11-12T13:54:08.888Z,101022.08
2018-11-12T13:56:37.413Z,101012.00
2018-11-12T13:59:06.250Z,101008.43
2018-11-12T14:01:34.930Z,101016.02
2018-11-12T14:04:03.501Z,101018.12
2018-11-12T14:06:32.121Z,101016.98
2018-11-12T14:09:00.733Z,101014.84
2018-11-12T14:11:29.252Z,101029.78
2018-11-12T14:13:58.065Z,101029.47
2018-11-12T14:16:26.602Z,101035.16
2018-11-12T14:18:55.224Z,101040.84
2018-11-12T14:21:23.875Z,101031.55
2018-11-12T14:23:52.381Z,101028.84
2018-11-12T14:26:20.995Z,101054.98
2018-11-12T14:28:49.878Z,101059.36
2018-11-12T14:31:18.447Z,101069.98
2018-11-12T14:33:46.953Z,101064.08
2018-11-12T14:36:15.503Z,101079.88
2018-11-12T14:38:44.040Z,101090.27
2018-11-12T14:41:12.596Z,101095.45
2018-11-12T14:43:41.120Z,101087.94
2018-11-12T14:46:09.713Z,101083.34
2018-11-12T14:48:38.545Z,101094.78
2018-11-12T14:51:07.305Z,101099.71
2018-11-12T14:53:35.819Z,101107.92
2018-11-12T14:56:04.348Z,101115.82
2018-11-12T14:58:32.956Z,101130.03
2018-11-12T15:01:01.495Z,101133.06
2018-11-12T15:03:30.077Z,101140.17
2018-11-12T15:05:58.655Z,101141.02
2018-11-12T15:08:27.338Z,101135.64
2018-11-12T15:10:55.926Z,101131.03
2018-11-12T15:13:24.471Z,101129.16
2018-11-12T15:15:53.002Z,101125.91
2018-11-12T15:18:21.772Z,101130.52
2018-11-12T15:20:50.480Z,101129.48
2018-11-12T15:23:19.029Z,101140.09
2018-11-12T15:25:48.171Z,101144.73
2018-11-12T15:28:16.823Z,101148.06
2018-11-12T15:30:45.367Z,101158.68
2018-11-12T15:33:13.911Z,101163.13
2018-11-12T15:35:42.540Z,101168.41
2018-11-12T15:38:11.099Z,101169.20
2018-11-12T15:40:39.623Z,101173.89
2018-11-12T15:43:08.201Z,101173.89
2018-11-12T15:45:36.766Z,101173.64
2018-11-12T15:48:05.426Z,101175.61
2018-11-12T15:50:35.591Z,101179.26
2018-11-12T15:53:04.223Z,101173.63
2018-11-12T15:55:32.807Z,101172.80
2018-11-12T15:58:01.397Z,101183.97
2018-11-12T16:00:29.956Z,101177.23
2018-11-12T16:02:58.481Z,101178.37
2018-11-12T16:05:27.198Z,101183.85
2018-11-12T16:07:55.730Z,101186.31
2018-11-12T16:10:24.269Z,101196.12
2018-11-12T16:12:52.796Z,101196.43
2018-11-12T16:15:22.157Z,101188.56
2018-11-12T16:17:50.730Z,101206.52
2018-11-12T16:20:21.666Z,101216.32
2018-11-12T16:22:50.772Z,101218.47
2018-11-12T16:25:19.757Z,101223.90
2018-11-12T16:27:48.306Z,101225.03
2018-11-12T16:30:16.840Z,101229.11
2018-11-12T16:32:45.890Z,101221.23
2018-11-12T16:35:16.105Z,101230.73
2018-11-12T16:37:45.335Z,101230.51
2018-11-12T16:40:13.955Z,101231.30
2018-11-12T16:42:43.562Z,101232.17
2018-11-12T16:45:12.944Z,101241.95
2018-11-12T16:47:41.615Z,101239.05
2018-11-12T16:50:11.237Z,101239.38
2018-11-12T16:52:39.847Z,101242.67
2018-11-12T16:55:11.828Z,101237.81
2018-11-12T16:57:40.397Z,101253.83
2018-11-12T17:00:12.024Z,101244.64
2018-11-12T17:02:40.826Z,101252.27
2018-11-12T17:05:11.430Z,101257.20
2018-11-12T17:07:40.035Z,101267.30
2018-11-12T17:10:10.150Z,101266.27
2018-11-12T17:12:39.471Z,101281.50
2018-11-12T17:15:08.781Z,101287.22
2018-11-12T17:17:37.385Z,101277.23
2018-11-12T17:20:06.523Z,101280.23
2018-11-12T17:22:35.232Z,101280.27
2018-11-12T17:25:04.197Z,101278.91
2018-11-12T17:27:32.744Z,101293.34
2018-11-12T17:30:01.320Z,101299.11
2018-11-12T17:32:30.051Z,101299.16
2018-11-12T17:34:58.643Z,101304.05
2018-11-12T17:37:27.176Z,101303.87
2018-11-12T17:39:55.816Z,101287.11
2018-11-12T17:42:24.508Z,101286.36
2018-11-12T17:44:53.109Z,101299.16
2018-11-12T17:47:21.677Z,101301.66
2018-11-12T17:49:50.212Z,101305.50
2018-11-12T17:52:18.752Z,101320.19
2018-11-12T17:54:47.295Z,101328.66
2018-11-12T17:57:15.820Z,101330.35
2018-11-12T17:59:44.458Z,101340.73
2018-11-12T18:02:12.952Z,101351.35
2018-11-12T18:04:41.514Z,101353.34
2018-11-12T18:07:10.171Z,101362.03
2018-11-12T18:09:38.645Z,101362.09
2018-11-12T18:12:07.958Z,101361.04
2018-11-12T18:14:36.568Z,101360.84
2018-11-12T18:17:05.093Z,101367.65
2018-11-12T18:19:33.670Z,101374.45
2018-11-12T18:22:02.453Z,101380.73
2018-11-12T18:24:31.063Z,101385.95
2018-11-12T18:26:59.595Z,101389.51
2018-11-12T18:29:28.138Z,101391.75
2018-11-12T18:31:56.859Z,101379.62
2018-11-12T18:34:25.224Z,101389.92
2018-11-12T18:36:53.725Z,101392.13
2018-11-12T18:39:22.225Z,101388.12
2018-11-12T18:41:50.890Z,101404.98
2018-11-12T18:44:19.497Z,101413.93
2018-11-12T18:46:48.429Z,101417.52
2018-11-12T18:49:16.986Z,101416.72
2018-11-12T18:51:45.517Z,101422.16
2018-11-12T18:54:14.092Z,101425.45
2018-11-12T18:56:42.607Z,101428.94
2018-11-12T18:59:11.156Z,101424.11
2018-11-12T19:01:39.682Z,101428.46
2018-11-12T19:04:08.288Z,101433.41
2018-11-12T19:06:36.902Z,101439.41
2018-11-12T19:09:07.830Z,101439.50
2018-11-12T19:11:36.419Z,101428.17
2018-11-12T19:14:05.302Z,101427.93
2018-11-12T19:16:33.880Z,101410.10
2018-11-12T19:19:02.459Z,101421.45
2018-11-12T19:21:31.092Z,101436.63
2018-11-12T19:23:59.598Z,101446.89
2018-11-12T19:26:28.097Z,101457.47
2018-11-12T19:28:56.646Z,101454.78
2018-11-12T19:31:25.175Z,101449.41
2018-11-12T19:33:53.840Z,101441.62
2018-11-12T19:36:22.392Z,101440.58
2018-11-12T19:38:51.044Z,101436.25
2018-11-12T19:41:19.785Z,101442.73
2018-11-12T19:43:48.313Z,101453.84
2018-11-12T19:46:16.864Z,101466.03
2018-11-12T19:48:45.674Z,101466.32
2018-11-12T19:51:14.261Z,101453.09
2018-11-12T19:53:42.785Z,101443.34
2018-11-12T19:56:11.426Z,101434.67
2018-11-12T19:58:39.961Z,101442.80
2018-11-12T20:01:08.558Z,101445.26
2018-11-12T20:03:37.155Z,101453.66
2018-11-12T20:06:06.782Z,101445.28
2018-11-12T20:08:35.295Z,101449.62
2018-11-12T20:11:03.848Z,101459.34
2018-11-12T20:13:32.391Z,101492.90
2018-11-12T20:16:00.962Z,101485.05
2018-11-12T20:18:29.595Z,101491.56
2018-11-12T20:20:58.135Z,101497.00
2018-11-12T20:23:26.706Z,101487.82
2018-11-12T20:25:55.571Z,101492.68
2018-11-12T20:28:24.131Z,101499.19
2018-11-12T20:30:52.709Z,101499.19
2018-11-12T20:33:21.290Z,101494.07
2018-11-12T20:35:49.840Z,101487.59
2018-11-12T20:38:18.412Z,101490.28
2018-11-12T20:40:46.958Z,101492.73
2018-11-12T20:43:15.494Z,101511.94
2018-11-12T20:45:44.044Z,101516.82
2018-11-12T20:48:12.618Z,101507.66
2018-11-12T20:50:41.248Z,101507.11
2018-11-12T20:53:09.785Z,101506.33
2018-11-12T20:55:38.538Z,101514.16
2018-11-12T20:58:07.274Z,101517.94
2018-11-12T21:00:35.835Z,101519.30
2018-11-12T21:03:04.422Z,101520.66
2018-11-12T21:05:32.967Z,101509.62
2018-11-12T21:08:01.612Z,101495.84
2018-11-12T21:10:30.145Z,101491.78
2018-11-12T21:12:58.671Z,101494.71
2018-11-12T21:15:27.223Z,101495.27
2018-11-12T21:17:55.761Z,101506.35
2018-11-12T21:20:25.475Z,101513.11
2018-11-12T21:22:54.303Z,101516.08
2018-11-12T21:25:24.053Z,101524.72
2018-11-12T21:27:52.638Z,101513.63
2018-11-12T21:30:28.343Z,101506.07
2018-11-12T21:32:56.865Z,101504.98
2018-11-12T21:35:25.791Z,101502.80
2018-11-12T21:37:55.532Z,101504.98
2018-11-12T21:40:25.305Z,101499.30
2018-11-12T21:42:54.043Z,101499.30
2018-11-12T21:45:24.067Z,101501.20
2018-11-12T21:47:52.604Z,101505.77
2018-11-12T21:50:21.843Z,101496.31
2018-11-12T21:52:50.736Z,101494.17
2018-11-12T21:55:25.890Z,101493.61
2018-11-12T21:57:54.476Z,101492.81
2018-11-12T22:00:25.863Z,101495.23
2018-11-12T22:02:55.743Z,101489.03
2018-11-12T22:05:24.493Z,101480.64
2018-11-12T22:07:53.048Z,101476.88
2018-11-12T22:10:21.599Z,101491.98
2018-11-12T22:12:51.144Z,101508.74
2018-11-12T22:15:26.333Z,101494.40
2018-11-12T22:17:55.035Z,101501.16
2018-11-12T22:20:25.132Z,101507.91
2018-11-12T22:22:53.671Z,101510.90
2018-11-12T22:25:22.958Z,101519.30
2018-11-12T22:27:52.394Z,101517.94
2018-11-12T22:30:22.186Z,101514.16
2018-11-12T22:32:51.919Z,101523.62
2018-11-12T22:35:20.468Z,101523.06
2018-11-12T22:37:49.297Z,101527.94
2018-11-12T22:40:18.631Z,101526.59
2018-11-12T22:42:48.287Z,101524.42
2018-11-12T22:45:18.393Z,101530.66
2018-11-12T22:47:47.581Z,101523.64
2018-11-12T22:50:16.097Z,101520.94
2018-11-12T22:52:45.245Z,101513.67
2018-11-12T22:55:14.955Z,101515.02
2018-11-12T22:57:43.532Z,101526.08
2018-11-12T23:00:24.292Z,101533.94
2018-11-12T23:02:53.083Z,101526.62
2018-11-12T23:05:22.048Z,101525.28
2018-11-12T23:07:51.108Z,101532.32
2018-11-12T23:10:20.118Z,101532.05
2018-11-12T23:12:48.710Z,101525.84
2018-11-12T23:15:17.817Z,101534.23
2018-11-12T23:17:46.379Z,101524.23
2018-11-12T23:20:17.068Z,101522.89
2018-11-12T23:22:46.508Z,101513.43
2018-11-12T23:25:15.154Z,101520.73
2018-11-12T23:27:44.678Z,101523.69
2018-11-12T23:30:14.784Z,101521.03
2018-11-12T23:32:43.386Z,101521.56
2018-11-12T23:35:14.031Z,101523.98
2018-11-12T23:37:43.403Z,101518.86
2018-11-12T23:40:15.571Z,101518.86
2018-11-12T23:42:44.781Z,101509.13
2018-11-12T23:45:13.419Z,101498.88
2018-11-12T23:47:45.316Z,101496.97
2018-11-12T23:50:17.037Z,101501.58
2018-11-12T23:52:46.466Z,101507.25
2018-11-12T23:55:15.378Z,101504.27
2018-11-12T23:57:45.279Z,101504.83
